createdAt,value
2023-04-28T00:00:40.333Z,43.76
2023-04-28T00:01:40.373Z,43.77
2023-04-28T00:02:40.502Z,43.75
2023-04-28T00:03:40.549Z,43.73
2023-04-28T00:04:40.636Z,43.78
2023-04-28T00:05:40.620Z,43.74
2023-04-28T00:06:40.520Z,43.73
2023-04-28T00:07:40.555Z,43.76
2023-04-28T00:08:40.576Z,43.75
2023-04-28T00:09:40.624Z,43.72
2023-04-28T00:10:40.647Z,43.71
2023-04-28T00:11:40.696Z,43.73
2023-04-28T00:12:40.731Z,43.72
2023-04-28T00:13:40.757Z,43.68
2023-04-28T00:14:40.820Z,43.69
2023-04-28T00:15:40.845Z,43.71
2023-04-28T00:16:41.051Z,43.68
2023-04-28T00:17:40.973Z,43.68
2023-04-28T00:18:40.910Z,43.69
2023-04-28T00:19:40.956Z,43.68
2023-04-28T00:20:40.975Z,43.68
2023-04-28T00:21:41.015Z,43.68
2023-04-28T00:22:41.042Z,43.64
2023-04-28T00:23:41.076Z,43.64
2023-04-28T00:24:41.118Z,43.58
2023-04-28T00:25:41.152Z,43.55
2023-04-28T00:26:41.192Z,43.53
2023-04-28T00:27:41.297Z,43.54
2023-04-28T00:28:41.249Z,43.54
2023-04-28T00:29:41.300Z,43.51
2023-04-28T00:30:41.342Z,43.49
2023-04-28T00:31:41.429Z,43.45
2023-04-28T00:32:41.461Z,43.50
2023-04-28T00:33:41.456Z,43.53
2023-04-28T00:34:41.495Z,43.49
2023-04-28T00:35:41.498Z,43.51
2023-04-28T00:36:41.528Z,43.45
2023-04-28T00:37:41.552Z,43.46
2023-04-28T00:38:41.648Z,43.47
2023-04-28T00:39:41.620Z,43.48
2023-04-28T00:40:41.674Z,43.47
2023-04-28T00:41:41.764Z,43.48
2023-04-28T00:42:41.817Z,43.48
2023-04-28T00:43:41.790Z,43.45
2023-04-28T00:44:41.812Z,43.42
2023-04-28T00:45:41.892Z,43.38
2023-04-28T00:46:41.898Z,43.43
2023-04-28T00:47:41.959Z,43.40
2023-04-28T00:48:41.951Z,43.42
2023-04-28T00:49:41.989Z,43.43
2023-04-28T00:50:42.032Z,43.40
2023-04-28T00:51:42.070Z,43.40
2023-04-28T00:52:42.402Z,43.42
2023-04-28T00:53:42.144Z,43.41
2023-04-28T00:54:42.183Z,43.42
2023-04-28T00:55:42.433Z,43.42
2023-04-28T00:56:42.432Z,43.41
2023-04-28T00:57:42.276Z,43.39
2023-04-28T00:58:42.319Z,43.39
2023-04-28T00:59:42.434Z,43.36
2023-04-28T01:00:42.405Z,43.40
2023-04-28T01:01:42.951Z,43.39
2023-04-28T01:02:42.565Z,43.37
2023-04-28T01:03:42.625Z,43.35
2023-04-28T01:04:42.721Z,43.36
2023-04-28T01:05:42.586Z,43.34
2023-04-28T01:06:42.626Z,43.33
2023-04-28T01:07:42.647Z,43.34
2023-04-28T01:08:42.710Z,43.32
2023-04-28T01:09:42.723Z,43.25
2023-04-28T01:10:42.753Z,43.22
2023-04-28T01:11:42.813Z,43.23
2023-04-28T01:12:42.839Z,43.23
2023-04-28T01:13:42.871Z,43.21
2023-04-28T01:14:42.866Z,43.19
2023-04-28T01:15:42.883Z,43.17
2023-04-28T01:16:42.955Z,43.17
2023-04-28T01:17:42.961Z,43.20
2023-04-28T01:18:43.938Z,43.22
2023-04-28T01:19:42.999Z,43.19
2023-04-28T01:20:43.020Z,43.17
2023-04-28T01:21:43.053Z,43.13
2023-04-28T01:22:43.143Z,43.09
2023-04-28T01:23:43.168Z,43.10
2023-04-28T01:24:43.204Z,43.08
2023-04-28T01:25:43.337Z,43.05
2023-04-28T01:26:43.292Z,43.02
2023-04-28T01:27:43.316Z,43.06
2023-04-28T01:28:43.355Z,43.02
2023-04-28T01:29:43.401Z,43.02
2023-04-28T01:30:43.448Z,43.04
2023-04-28T01:31:43.530Z,42.98
2023-04-28T01:32:43.571Z,42.96
2023-04-28T01:33:43.548Z,42.95
2023-04-28T01:34:43.586Z,42.94
2023-04-28T01:35:43.619Z,42.90
2023-04-28T01:36:43.658Z,42.87
2023-04-28T01:37:43.688Z,42.89
2023-04-28T01:38:43.732Z,42.89
2023-04-28T01:39:43.762Z,42.91
2023-04-28T01:40:43.789Z,42.87
2023-04-28T01:41:43.829Z,42.90
2023-04-28T01:42:43.829Z,42.91
2023-04-28T01:43:43.870Z,42.91
2023-04-28T01:44:43.887Z,42.94
2023-04-28T01:45:43.885Z,42.89
2023-04-28T01:46:43.921Z,42.88
2023-04-28T01:47:44.050Z,42.90
2023-04-28T01:48:44.452Z,42.92
2023-04-28T01:49:44.013Z,42.90
2023-04-28T01:50:44.044Z,42.90
2023-04-28T01:51:44.075Z,42.89
2023-04-28T01:52:44.099Z,42.91
2023-04-28T01:53:44.112Z,42.89
2023-04-28T01:54:44.167Z,42.87
2023-04-28T01:55:44.194Z,42.88
2023-04-28T01:56:44.240Z,42.83
2023-04-28T01:57:44.323Z,42.82
2023-04-28T01:58:44.294Z,42.85
2023-04-28T01:59:44.325Z,42.84
2023-04-28T02:00:44.324Z,42.78
2023-04-28T02:01:44.446Z,42.79
2023-04-28T02:02:44.465Z,42.79
2023-04-28T02:03:44.726Z,42.77
2023-04-28T02:04:44.998Z,42.75
2023-04-28T02:05:44.382Z,42.73
2023-04-28T02:06:44.389Z,42.70
2023-04-28T02:07:44.382Z,42.71
2023-04-28T02:08:44.394Z,42.69
2023-04-28T02:09:44.434Z,42.67
2023-04-28T02:10:44.457Z,42.67
2023-04-28T02:11:44.333Z,42.67
2023-04-28T02:12:44.363Z,42.63
2023-04-28T02:13:44.396Z,42.67
2023-04-28T02:14:44.413Z,42.64
2023-04-28T02:15:44.507Z,42.67
2023-04-28T02:16:44.402Z,42.67
2023-04-28T02:17:44.420Z,42.67
2023-04-28T02:18:44.360Z,42.70
2023-04-28T02:19:44.359Z,42.68
2023-04-28T02:20:44.369Z,42.69
2023-04-28T02:21:44.396Z,42.66
2023-04-28T02:22:44.424Z,42.69
2023-04-28T02:23:44.422Z,42.68
2023-04-28T02:24:44.434Z,42.67
2023-04-28T02:25:44.462Z,42.62
2023-04-28T02:26:44.469Z,42.61
2023-04-28T02:27:44.504Z,42.57
2023-04-28T02:28:44.483Z,42.56
2023-04-28T02:29:44.479Z,42.54
2023-04-28T02:30:44.490Z,42.55
2023-04-28T02:31:44.560Z,42.54
2023-04-28T02:32:44.526Z,42.52
2023-04-28T02:33:44.548Z,42.53
2023-04-28T02:34:44.543Z,42.54
2023-04-28T02:35:44.566Z,42.49
2023-04-28T02:36:44.564Z,42.51
2023-04-28T02:37:44.553Z,42.51
2023-04-28T02:38:44.561Z,42.52
2023-04-28T02:39:44.574Z,42.52
2023-04-28T02:40:44.603Z,42.55
2023-04-28T02:41:44.595Z,42.52
2023-04-28T02:42:44.603Z,42.47
2023-04-28T02:43:44.590Z,42.49
2023-04-28T02:44:44.579Z,42.50
2023-04-28T02:45:44.571Z,42.50
2023-04-28T02:46:44.622Z,42.50
2023-04-28T02:47:44.710Z,42.47
2023-04-28T02:48:44.627Z,42.43
2023-04-28T02:49:44.658Z,42.45
2023-04-28T02:50:44.687Z,42.44
2023-04-28T02:51:44.781Z,42.42
2023-04-28T02:52:44.908Z,42.43
2023-04-28T02:53:44.734Z,42.43
2023-04-28T02:54:44.737Z,42.48
2023-04-28T02:55:44.729Z,42.46
2023-04-28T02:56:44.729Z,42.45
2023-04-28T02:57:44.727Z,42.41
2023-04-28T02:58:44.712Z,42.43
2023-04-28T02:59:44.739Z,42.42
2023-04-28T03:00:44.762Z,42.42
2023-04-28T03:01:44.791Z,42.40
2023-04-28T03:02:44.805Z,42.35
2023-04-28T03:03:44.883Z,42.33
2023-04-28T03:04:44.811Z,42.32
2023-04-28T03:05:44.743Z,42.38
2023-04-28T03:06:44.750Z,42.39
2023-04-28T03:07:44.754Z,42.38
2023-04-28T03:08:44.767Z,42.36
2023-04-28T03:09:44.766Z,42.38
2023-04-28T03:10:44.775Z,42.37
2023-04-28T03:11:44.774Z,42.39
2023-04-28T03:12:44.777Z,42.37
2023-04-28T03:13:44.809Z,42.35
2023-04-28T03:14:44.831Z,42.34
2023-04-28T03:15:44.856Z,42.31
2023-04-28T03:16:44.899Z,42.31
2023-04-28T03:17:44.919Z,42.31
2023-04-28T03:18:44.870Z,42.29
2023-04-28T03:19:44.863Z,42.24
2023-04-28T03:20:44.875Z,42.24
2023-04-28T03:21:44.901Z,42.24
2023-04-28T03:22:44.890Z,42.23
2023-04-28T03:23:44.864Z,42.23
2023-04-28T03:24:44.851Z,42.27
2023-04-28T03:25:44.825Z,42.27
2023-04-28T03:26:44.826Z,42.29
2023-04-28T03:27:44.852Z,42.30
2023-04-28T03:28:44.855Z,42.26
2023-04-28T03:29:44.852Z,42.23
2023-04-28T03:30:44.854Z,42.21
2023-04-28T03:31:44.976Z,42.22
2023-04-28T03:32:44.855Z,42.19
2023-04-28T03:33:44.888Z,42.16
2023-04-28T03:34:44.835Z,42.18
2023-04-28T03:35:44.833Z,42.16
2023-04-28T03:36:44.841Z,42.13
2023-04-28T03:37:44.832Z,42.15
2023-04-28T03:38:44.798Z,42.11
2023-04-28T03:39:44.877Z,42.10
2023-04-28T03:40:44.753Z,42.09
2023-04-28T03:41:45.009Z,42.07
2023-04-28T03:42:44.757Z,42.06
2023-04-28T03:43:44.759Z,42.05
2023-04-28T03:44:44.741Z,42.03
2023-04-28T03:45:44.791Z,42.03
2023-04-28T03:46:44.720Z,42.03
2023-04-28T03:47:44.733Z,42.04
2023-04-28T03:48:44.717Z,42.02
2023-04-28T03:49:44.668Z,42.02
2023-04-28T03:50:44.645Z,41.99
2023-04-28T03:51:44.632Z,41.96
2023-04-28T03:52:44.616Z,41.94
2023-04-28T03:53:45.487Z,41.93
2023-04-28T03:54:44.604Z,41.93
2023-04-28T03:55:44.607Z,41.97
2023-04-28T03:56:44.610Z,41.92
2023-04-28T03:57:44.596Z,41.94
2023-04-28T03:58:44.583Z,41.91
2023-04-28T03:59:44.634Z,41.87
2023-04-28T04:00:44.609Z,41.87
2023-04-28T04:01:44.599Z,41.90
2023-04-28T04:02:44.722Z,41.89
2023-04-28T04:03:44.801Z,41.90
2023-04-28T04:04:44.710Z,41.90
2023-04-28T04:06:44.571Z,41.92
2023-04-28T04:07:44.585Z,41.93
2023-04-28T04:08:44.590Z,41.90
2023-04-28T04:09:44.592Z,41.89
2023-04-28T04:10:44.577Z,41.88
2023-04-28T04:11:44.580Z,41.90
2023-04-28T04:12:44.591Z,41.90
2023-04-28T04:13:44.584Z,41.92
2023-04-28T04:14:44.584Z,41.94
2023-04-28T04:15:44.646Z,41.96
2023-04-28T04:16:44.584Z,41.94
2023-04-28T04:17:44.641Z,41.95
2023-04-28T04:18:44.599Z,41.95
2023-04-28T04:19:44.602Z,41.97
2023-04-28T04:20:44.612Z,41.94
2023-04-28T04:21:44.649Z,41.94
2023-04-28T04:22:44.649Z,41.95
2023-04-28T04:23:44.643Z,41.95
2023-04-28T04:24:44.639Z,41.96
2023-04-28T04:25:44.623Z,41.96
2023-04-28T04:26:44.694Z,41.96
2023-04-28T04:27:44.617Z,41.96
2023-04-28T04:28:44.581Z,41.96
2023-04-28T04:29:44.612Z,41.97
2023-04-28T04:30:44.575Z,41.99
2023-04-28T04:31:44.594Z,41.98
2023-04-28T04:32:44.573Z,41.97
2023-04-28T04:33:44.515Z,41.98
2023-04-28T04:34:44.990Z,41.95
2023-04-28T04:35:44.535Z,41.99
2023-04-28T04:36:44.511Z,41.95
2023-04-28T04:37:44.520Z,41.98
2023-04-28T04:38:44.501Z,41.97
2023-04-28T04:39:44.424Z,41.96
2023-04-28T04:40:44.423Z,41.95
2023-04-28T04:41:44.372Z,41.96
2023-04-28T04:42:44.348Z,41.96
2023-04-28T04:43:44.326Z,41.96
2023-04-28T04:44:44.346Z,41.98
2023-04-28T04:45:44.307Z,41.96
2023-04-28T04:46:44.338Z,41.97
2023-04-28T04:47:44.324Z,41.96
2023-04-28T04:48:44.244Z,41.97
2023-04-28T04:49:44.221Z,41.96
2023-04-28T04:50:44.189Z,41.97
2023-04-28T04:51:44.196Z,41.95
2023-04-28T04:52:44.171Z,41.91
2023-04-28T04:53:44.205Z,41.96
2023-04-28T04:54:44.133Z,41.95
2023-04-28T04:55:44.103Z,41.95
2023-04-28T04:56:44.072Z,41.98
2023-04-28T04:57:44.117Z,41.97
2023-04-28T04:58:44.051Z,41.97
2023-04-28T04:59:44.030Z,41.97
2023-04-28T05:00:44.005Z,41.98
2023-04-28T05:01:44.036Z,41.97
2023-04-28T05:02:44.157Z,41.98
2023-04-28T05:03:44.078Z,41.99
2023-04-28T05:04:44.256Z,42.00
2023-04-28T05:05:46.071Z,41.97
2023-04-28T05:06:44.042Z,41.98
2023-04-28T05:07:43.938Z,42.00
2023-04-28T05:08:43.913Z,41.98
2023-04-28T05:09:43.899Z,41.98
2023-04-28T05:10:44.519Z,41.96
2023-04-28T05:11:43.852Z,41.99
2023-04-28T05:12:45.087Z,41.99
2023-04-28T05:13:43.787Z,41.98
2023-04-28T05:14:43.772Z,41.97
2023-04-28T05:15:43.735Z,41.97
2023-04-28T05:16:43.753Z,41.99
2023-04-28T05:17:43.807Z,41.97
2023-04-28T05:18:43.649Z,41.97
2023-04-28T05:19:43.628Z,42.02
2023-04-28T05:20:43.601Z,41.10
2023-04-28T05:21:43.604Z,40.50
2023-04-28T05:22:43.563Z,39.69
2023-04-28T05:23:43.543Z,40.26
2023-04-28T05:24:43.520Z,40.43
2023-04-28T05:25:43.500Z,40.44
2023-04-28T05:26:43.489Z,40.51
2023-04-28T05:27:43.464Z,41.31
2023-04-28T05:28:43.459Z,40.92
2023-04-28T05:29:43.460Z,41.17
2023-04-28T05:30:43.424Z,41.27
2023-04-28T05:31:43.496Z,41.16
2023-04-28T05:32:43.473Z,40.90
2023-04-28T05:33:43.383Z,40.92
2023-04-28T05:34:43.412Z,40.91
2023-04-28T05:35:43.945Z,40.81
2023-04-28T05:36:43.326Z,40.92
2023-04-28T05:37:43.312Z,40.98
2023-04-28T05:38:43.408Z,41.08
2023-04-28T05:39:43.342Z,41.08
2023-04-28T05:40:44.021Z,41.04
2023-04-28T05:41:43.244Z,41.03
2023-04-28T05:42:43.218Z,41.02
2023-04-28T05:43:43.181Z,40.89
2023-04-28T05:44:43.299Z,40.83
2023-04-28T05:45:43.192Z,40.85
2023-04-28T05:46:43.179Z,40.92
2023-04-28T05:47:43.154Z,40.94
2023-04-28T05:48:43.104Z,40.95
2023-04-28T05:49:43.064Z,41.11
2023-04-28T05:50:43.158Z,41.05
2023-04-28T05:51:43.023Z,41.04
2023-04-28T05:52:43.004Z,40.99
2023-04-28T05:53:43.004Z,40.96
2023-04-28T05:54:42.974Z,41.08
2023-04-28T05:55:42.946Z,41.08
2023-04-28T05:56:42.917Z,41.05
2023-04-28T05:57:52.295Z,41.05
2023-04-28T05:58:43.882Z,41.10
2023-04-28T05:59:42.858Z,41.13
2023-04-28T06:00:42.833Z,41.17
2023-04-28T06:01:42.807Z,41.22
2023-04-28T06:02:42.878Z,41.25
2023-04-28T06:03:42.856Z,41.29
2023-04-28T06:04:42.932Z,41.36
2023-04-28T06:05:42.847Z,41.39
2023-04-28T06:06:42.677Z,41.49
2023-04-28T06:07:42.674Z,41.47
2023-04-28T06:08:42.626Z,41.49
2023-04-28T06:09:42.658Z,41.48
2023-04-28T06:10:42.566Z,41.52
2023-04-28T06:11:42.557Z,41.55
2023-04-28T06:12:42.532Z,41.60
2023-04-28T06:13:42.499Z,41.60
2023-04-28T06:14:42.487Z,41.57
2023-04-28T06:15:42.462Z,41.60
2023-04-28T06:16:42.418Z,41.61
2023-04-28T06:17:42.458Z,41.64
2023-04-28T06:18:42.413Z,41.64
2023-04-28T06:19:42.338Z,41.73
2023-04-28T06:20:42.305Z,41.76
2023-04-28T06:21:42.275Z,42.18
2023-04-28T06:22:42.250Z,42.35
2023-04-28T06:23:42.216Z,42.33
2023-04-28T06:24:42.182Z,42.40
2023-04-28T06:25:42.155Z,42.30
2023-04-28T06:26:42.141Z,42.35
2023-04-28T06:27:42.097Z,42.19
2023-04-28T06:28:42.142Z,42.20
2023-04-28T06:29:42.038Z,41.95
2023-04-28T06:30:42.016Z,41.73
2023-04-28T06:31:42.037Z,41.52
2023-04-28T06:32:42.109Z,41.36
2023-04-28T06:33:41.933Z,41.56
2023-04-28T06:34:41.971Z,41.68
2023-04-28T06:35:41.898Z,41.79
2023-04-28T06:36:41.868Z,41.86
2023-04-28T06:37:41.850Z,41.92
2023-04-28T06:38:41.823Z,41.93
2023-04-28T06:39:41.799Z,41.91
2023-04-28T06:40:41.823Z,41.93
2023-04-28T06:41:42.057Z,41.92
2023-04-28T06:42:41.726Z,41.85
2023-04-28T06:43:41.695Z,41.80
2023-04-28T06:44:41.685Z,41.78
2023-04-28T06:45:41.644Z,41.76
2023-04-28T06:46:42.512Z,41.68
2023-04-28T06:47:41.627Z,41.64
2023-04-28T06:48:41.583Z,41.62
2023-04-28T06:49:41.585Z,41.73
2023-04-28T06:50:43.584Z,41.73
2023-04-28T06:51:41.580Z,41.86
2023-04-28T06:52:41.555Z,41.89
2023-04-28T06:53:41.551Z,41.91
2023-04-28T06:54:41.540Z,41.73
2023-04-28T06:55:41.528Z,41.63
2023-04-28T06:56:42.057Z,41.56
2023-04-28T06:57:41.496Z,41.50
2023-04-28T06:58:41.476Z,41.32
2023-04-28T06:59:41.466Z,41.23
2023-04-28T07:00:42.064Z,41.22
2023-04-28T07:01:41.501Z,41.15
2023-04-28T07:02:41.642Z,41.12
2023-04-28T07:03:41.649Z,41.09
2023-04-28T07:04:41.410Z,41.08
2023-04-28T07:05:41.402Z,41.09
2023-04-28T07:06:41.395Z,41.07
2023-04-28T07:07:41.380Z,41.13
2023-04-28T07:08:41.351Z,41.18
2023-04-28T07:09:41.370Z,41.20
2023-04-28T07:10:42.081Z,41.16
2023-04-28T07:11:41.328Z,41.18
2023-04-28T07:12:41.300Z,41.23
2023-04-28T07:13:41.290Z,41.24
2023-04-28T07:14:41.277Z,41.28
2023-04-28T07:15:41.255Z,41.38
2023-04-28T07:16:41.331Z,41.32
2023-04-28T07:17:41.254Z,41.45
2023-04-28T07:18:41.209Z,41.61
2023-04-28T07:19:41.200Z,42.11
2023-04-28T07:20:41.159Z,42.18
2023-04-28T07:21:41.127Z,42.61
2023-04-28T07:22:41.107Z,42.00
2023-04-28T07:23:41.116Z,42.12
2023-04-28T07:24:41.073Z,42.23
2023-04-28T07:25:41.119Z,42.19
2023-04-28T07:26:41.063Z,42.11
2023-04-28T07:27:41.995Z,42.21
2023-04-28T07:28:41.123Z,42.28
2023-04-28T07:29:41.148Z,42.88
2023-04-28T07:30:41.171Z,42.92
2023-04-28T07:31:41.209Z,42.88
2023-04-28T07:32:41.216Z,43.02
2023-04-28T07:33:41.216Z,43.16
2023-04-28T07:34:41.212Z,43.30
2023-04-28T07:35:41.227Z,43.52
2023-04-28T07:36:41.228Z,43.53
2023-04-28T07:37:41.219Z,43.59
2023-04-28T07:38:41.207Z,43.75
2023-04-28T07:39:41.188Z,43.88
2023-04-28T07:40:41.172Z,43.92
2023-04-28T07:41:41.165Z,44.00
2023-04-28T07:42:41.164Z,44.20
2023-04-28T07:43:41.167Z,44.12
2023-04-28T07:44:41.113Z,44.11
2023-04-28T07:45:41.169Z,44.19
2023-04-28T07:46:41.076Z,44.27
2023-04-28T07:47:41.052Z,44.28
2023-04-28T07:48:41.023Z,44.38
2023-04-28T07:49:40.985Z,44.56
2023-04-28T07:50:40.972Z,44.67
2023-04-28T07:51:40.948Z,44.84
2023-04-28T07:52:41.579Z,45.00
2023-04-28T07:53:40.855Z,45.12
2023-04-28T07:54:40.858Z,45.20
2023-04-28T07:55:40.774Z,45.32
2023-04-28T07:56:40.761Z,45.44
2023-04-28T07:57:40.754Z,45.47
2023-04-28T07:58:40.722Z,45.66
2023-04-28T07:59:42.533Z,45.92
2023-04-28T08:00:41.152Z,45.99
2023-04-28T08:01:40.695Z,46.02
2023-04-28T08:02:40.880Z,46.07
2023-04-28T08:03:40.878Z,46.28
2023-04-28T08:04:41.749Z,46.33
2023-04-28T08:05:40.664Z,46.45
2023-04-28T08:06:40.667Z,46.68
2023-04-28T08:07:40.623Z,46.80
2023-04-28T08:08:40.606Z,46.91
2023-04-28T08:09:41.757Z,46.96
2023-04-28T08:10:40.724Z,47.09
2023-04-28T08:11:40.642Z,47.22
2023-04-28T08:12:41.533Z,47.20
2023-04-28T08:13:40.707Z,47.26
2023-04-28T08:14:40.618Z,47.12
2023-04-28T08:15:40.636Z,46.96
2023-04-28T08:16:40.565Z,45.13
2023-04-28T08:17:40.595Z,45.42
2023-04-28T08:18:40.556Z,45.28
2023-04-28T08:19:41.081Z,45.52
2023-04-28T08:20:40.480Z,45.13
2023-04-28T08:21:40.510Z,45.18
2023-04-28T08:22:41.003Z,45.61
2023-04-28T08:23:40.468Z,46.05
2023-04-28T08:24:40.445Z,46.22
2023-04-28T08:25:40.425Z,46.28
2023-04-28T08:26:40.420Z,46.27
2023-04-28T08:27:40.410Z,46.27
2023-04-28T08:28:40.407Z,46.12
2023-04-28T08:29:40.437Z,46.05
2023-04-28T08:30:40.404Z,46.13
2023-04-28T08:31:41.117Z,46.14
2023-04-28T08:32:40.444Z,46.16
2023-04-28T08:33:40.437Z,46.25
2023-04-28T08:34:41.005Z,46.28
2023-04-28T08:35:40.478Z,46.28
2023-04-28T08:36:42.081Z,46.37
2023-04-28T08:37:40.351Z,46.34
2023-04-28T08:38:40.320Z,46.32
2023-04-28T08:39:40.291Z,46.33
2023-04-28T08:40:40.252Z,46.32
2023-04-28T08:41:40.302Z,46.31
2023-04-28T08:42:40.194Z,46.33
2023-04-28T08:43:40.153Z,46.34
2023-04-28T08:44:40.124Z,46.35
2023-04-28T08:45:40.114Z,46.37
2023-04-28T08:46:40.103Z,46.39
2023-04-28T08:47:40.054Z,46.35
2023-04-28T08:48:40.050Z,46.35
2023-04-28T08:49:40.052Z,46.32
2023-04-28T08:50:40.069Z,46.32
2023-04-28T08:51:42.036Z,46.34
2023-04-28T08:52:40.117Z,46.38
2023-04-28T08:54:06.202Z,46.33
2023-04-28T08:54:41.104Z,46.37
2023-04-28T08:55:40.074Z,46.34
2023-04-28T08:56:40.051Z,46.31
2023-04-28T08:57:41.214Z,46.28
2023-04-28T08:58:39.960Z,46.32
2023-04-28T08:59:39.986Z,46.28
2023-04-28T09:00:39.918Z,46.30
2023-04-28T09:01:39.907Z,46.26
2023-04-28T09:02:39.942Z,46.25
2023-04-28T09:03:39.883Z,46.24
2023-04-28T09:04:39.899Z,46.22
2023-04-28T09:05:39.825Z,46.24
2023-04-28T09:06:39.818Z,46.20
2023-04-28T09:07:39.819Z,46.17
2023-04-28T09:08:39.889Z,46.19
2023-04-28T09:09:40.058Z,46.18
2023-04-28T09:10:40.075Z,46.16
2023-04-28T09:11:39.921Z,46.13
2023-04-28T09:12:40.595Z,46.08
2023-04-28T09:13:39.984Z,46.04
2023-04-28T09:14:40.003Z,46.07
2023-04-28T09:15:40.043Z,46.08
2023-04-28T09:16:40.134Z,46.05
2023-04-28T09:17:40.097Z,46.05
2023-04-28T09:18:40.119Z,46.31
2023-04-28T09:19:40.154Z,46.58
2023-04-28T09:20:40.175Z,45.04
2023-04-28T09:21:40.166Z,44.35
2023-04-28T09:22:42.058Z,44.33
2023-04-28T09:23:40.141Z,43.99
2023-04-28T09:24:41.021Z,44.32
2023-04-28T09:25:40.121Z,44.49
2023-04-28T09:26:40.122Z,44.57
2023-04-28T09:27:41.106Z,44.68
2023-04-28T09:28:40.107Z,44.87
2023-04-28T09:29:40.046Z,44.92
2023-04-28T09:30:40.038Z,44.99
2023-04-28T09:31:40.666Z,44.89
2023-04-28T09:32:40.005Z,44.90
2023-04-28T09:33:39.955Z,44.91
2023-04-28T09:34:39.924Z,44.99
2023-04-28T09:35:39.936Z,44.97
2023-04-28T09:36:39.960Z,44.96
2023-04-28T09:37:40.535Z,45.03
2023-04-28T09:38:40.017Z,45.15
2023-04-28T09:39:40.040Z,45.23
2023-04-28T09:40:40.070Z,45.26
2023-04-28T09:41:40.095Z,45.37
2023-04-28T09:42:41.134Z,45.41
2023-04-28T09:43:40.156Z,45.37
2023-04-28T09:44:41.112Z,45.38
2023-04-28T09:45:40.176Z,45.45
2023-04-28T09:46:40.202Z,45.57
2023-04-28T09:47:40.195Z,45.60
2023-04-28T09:48:40.175Z,45.63
2023-04-28T09:49:41.037Z,45.68
2023-04-28T09:50:40.189Z,45.79
2023-04-28T09:51:40.186Z,45.82
2023-04-28T09:52:40.192Z,45.87
2023-04-28T09:53:40.222Z,45.81
2023-04-28T09:54:40.178Z,45.88
2023-04-28T09:55:40.174Z,45.99
2023-04-28T09:56:40.206Z,46.07
2023-04-28T09:57:40.240Z,46.12
2023-04-28T09:58:40.188Z,46.15
2023-04-28T09:59:40.185Z,46.20
2023-04-28T10:00:40.180Z,46.26
2023-04-28T10:01:40.245Z,46.18
2023-04-28T10:02:43.689Z,46.24
2023-04-28T10:03:40.359Z,46.30
2023-04-28T10:04:40.377Z,46.58
2023-04-28T10:05:40.213Z,46.34
2023-04-28T10:06:40.047Z,46.55
2023-04-28T10:07:40.021Z,46.49
2023-04-28T10:08:39.955Z,46.50
2023-04-28T10:09:39.921Z,46.56
2023-04-28T10:10:39.876Z,47.24
2023-04-28T10:11:39.850Z,47.45
2023-04-28T10:12:39.828Z,47.05
2023-04-28T10:13:39.811Z,45.08
2023-04-28T10:14:39.738Z,43.90
2023-04-28T10:15:39.761Z,42.78
2023-04-28T10:16:39.742Z,43.39
2023-04-28T10:17:39.685Z,44.16
2023-04-28T10:18:39.644Z,44.39
2023-04-28T10:19:39.624Z,44.66
2023-04-28T10:20:39.596Z,44.79
2023-04-28T10:21:39.652Z,44.99
2023-04-28T10:22:39.542Z,44.86
2023-04-28T10:23:39.514Z,44.86
2023-04-28T10:24:39.484Z,45.08
2023-04-28T10:25:39.448Z,45.22
2023-04-28T10:26:39.404Z,45.57
2023-04-28T10:27:39.378Z,45.57
2023-04-28T10:28:39.342Z,45.73
2023-04-28T10:29:39.304Z,45.98
2023-04-28T10:30:39.271Z,46.24
2023-04-28T10:31:39.305Z,46.12
2023-04-28T10:32:39.268Z,46.30
2023-04-28T10:33:39.154Z,46.34
2023-04-28T10:34:39.115Z,46.53
2023-04-28T10:35:39.076Z,46.60
2023-04-28T10:36:39.042Z,46.58
2023-04-28T10:37:39.012Z,46.74
2023-04-28T10:38:38.983Z,46.91
2023-04-28T10:39:38.916Z,47.00
2023-04-28T10:40:38.885Z,47.06
2023-04-28T10:41:38.870Z,47.17
2023-04-28T10:42:38.824Z,47.22
2023-04-28T10:43:38.795Z,47.40
2023-04-28T10:44:38.755Z,47.37
2023-04-28T10:45:38.708Z,47.53
2023-04-28T10:46:38.715Z,47.63
2023-04-28T10:47:38.669Z,47.84
2023-04-28T10:48:38.587Z,47.97
2023-04-28T10:49:38.532Z,48.05
2023-04-28T10:50:39.319Z,48.56
2023-04-28T10:51:38.457Z,48.61
2023-04-28T10:52:38.444Z,48.38
2023-04-28T10:53:38.385Z,48.83
2023-04-28T10:54:38.327Z,48.74
2023-04-28T10:55:38.337Z,48.94
2023-04-28T10:56:39.861Z,49.13
2023-04-28T10:57:38.228Z,49.13
2023-04-28T10:58:38.165Z,49.24
2023-04-28T10:59:38.119Z,49.49
2023-04-28T11:00:38.076Z,49.34
2023-04-28T11:01:38.050Z,49.36
2023-04-28T11:02:39.006Z,49.86
2023-04-28T11:03:38.223Z,49.76
2023-04-28T11:04:38.138Z,49.83
2023-04-28T11:05:37.842Z,49.80
2023-04-28T11:06:37.807Z,50.10
2023-04-28T11:07:37.755Z,49.91
2023-04-28T11:08:37.760Z,49.76
2023-04-28T11:09:37.656Z,49.74
2023-04-28T11:10:37.616Z,49.78
2023-04-28T11:11:37.570Z,49.81
2023-04-28T11:12:37.523Z,49.81
2023-04-28T11:13:37.485Z,49.84
2023-04-28T11:14:37.441Z,49.85
2023-04-28T11:15:37.380Z,49.93
2023-04-28T11:16:37.365Z,49.94
2023-04-28T11:17:38.204Z,49.93
2023-04-28T11:18:37.261Z,49.94
2023-04-28T11:19:37.212Z,49.93
2023-04-28T11:20:37.188Z,49.93
2023-04-28T11:21:37.147Z,49.95
2023-04-28T11:22:37.107Z,50.01
2023-04-28T11:23:37.061Z,49.94
2023-04-28T11:24:37.034Z,50.01
2023-04-28T11:25:36.985Z,50.00
2023-04-28T11:26:36.955Z,50.02
2023-04-28T11:27:36.917Z,50.04
2023-04-28T11:28:36.894Z,49.99
2023-04-28T11:29:36.854Z,50.03
2023-04-28T11:30:36.813Z,50.02
2023-04-28T11:31:36.865Z,50.02
2023-04-28T11:32:36.817Z,49.99
2023-04-28T11:33:36.706Z,49.96
2023-04-28T11:34:36.674Z,49.93
2023-04-28T11:35:36.676Z,49.93
2023-04-28T11:36:36.601Z,49.91
2023-04-28T11:37:36.548Z,49.91
2023-04-28T11:38:36.512Z,49.88
2023-04-28T11:39:36.488Z,49.86
2023-04-28T11:40:36.435Z,49.88
2023-04-28T11:41:36.423Z,49.85
2023-04-28T11:42:36.403Z,49.89
2023-04-28T11:43:46.384Z,49.85
2023-04-28T11:44:37.329Z,49.81
2023-04-28T11:45:36.260Z,49.85
2023-04-28T11:46:36.200Z,49.81
2023-04-28T11:47:36.197Z,49.82
2023-04-28T11:48:36.126Z,49.79
2023-04-28T11:49:38.372Z,49.77
2023-04-28T11:50:36.067Z,49.78
2023-04-28T11:51:36.027Z,49.78
2023-04-28T11:52:35.977Z,49.80
2023-04-28T11:53:36.013Z,49.80
2023-04-28T11:54:35.924Z,49.76
2023-04-28T11:55:38.218Z,49.74
2023-04-28T11:56:35.846Z,49.75
2023-04-28T11:57:35.806Z,49.76
2023-04-28T11:58:35.835Z,49.77
2023-04-28T11:59:35.780Z,49.76
2023-04-28T12:00:35.701Z,49.73
2023-04-28T12:01:35.670Z,49.71
2023-04-28T12:02:35.762Z,49.68
2023-04-28T12:03:35.706Z,49.67
2023-04-28T12:04:35.684Z,49.65
2023-04-28T12:05:38.202Z,49.67
2023-04-28T12:06:35.493Z,49.68
2023-04-28T12:07:35.455Z,49.64
2023-04-28T12:08:35.492Z,49.63
2023-04-28T12:09:35.384Z,49.58
2023-04-28T12:10:35.357Z,49.56
2023-04-28T12:11:35.331Z,49.57
2023-04-28T12:12:49.183Z,49.51
2023-04-28T12:13:36.345Z,49.51
2023-04-28T12:14:35.284Z,49.53
2023-04-28T12:15:36.240Z,49.55
2023-04-28T12:16:35.174Z,49.50
2023-04-28T12:17:35.164Z,49.51
2023-04-28T12:18:35.119Z,49.48
2023-04-28T12:19:35.087Z,49.48
2023-04-28T12:20:35.072Z,49.46
2023-04-28T12:21:36.779Z,49.41
2023-04-28T12:22:34.979Z,49.44
2023-04-28T12:23:34.928Z,49.36
2023-04-28T12:24:34.982Z,49.40
2023-04-28T12:25:34.864Z,49.38
2023-04-28T12:26:34.853Z,49.36
2023-04-28T12:27:36.695Z,49.39
2023-04-28T12:28:34.765Z,49.41
2023-04-28T12:29:34.743Z,49.36
2023-04-28T12:30:34.736Z,49.33
2023-04-28T12:31:34.719Z,49.31
2023-04-28T12:32:34.664Z,49.28
2023-04-28T12:33:34.956Z,49.28
2023-04-28T12:34:34.654Z,49.30
2023-04-28T12:35:34.536Z,49.28
2023-04-28T12:36:34.519Z,49.27
2023-04-28T12:37:34.474Z,49.21
2023-04-28T12:38:34.444Z,49.19
2023-04-28T12:39:34.934Z,49.17
2023-04-28T12:40:34.378Z,49.20
2023-04-28T12:41:34.346Z,49.21
2023-04-28T12:42:34.302Z,49.18
2023-04-28T12:43:34.271Z,49.17
2023-04-28T12:44:34.233Z,49.18
2023-04-28T12:45:34.213Z,49.14
2023-04-28T12:46:34.207Z,49.14
2023-04-28T12:47:34.151Z,49.12
2023-04-28T12:48:34.108Z,49.10
2023-04-28T12:49:34.130Z,49.10
2023-04-28T12:50:34.047Z,49.08
2023-04-28T12:51:34.100Z,49.09
2023-04-28T12:52:33.979Z,49.07
2023-04-28T12:53:34.015Z,49.06